Time;durP1;ratioP1;P1;durP2;ratioP2;P2;SDS_P1;SDS_P2;PMS_P1;PMS_P2;Temp;Humidity;BMP_temperature;BMP_pressure;BME280_temperature;BME280_humidity;BME280_pressure;Samples;Min_cycle;Max_cycle;Signal;HPM_P1;HPM_P2
2022/12/02 04:59:34;;;;;;;34.97;19.83;;;;;;;4.20;55.35;100181.25;10457753;27;118206;-33
2022/12/02 05:04:36;;;;;;;36.33;20.30;;;;;;;3.18;57.55;100215.41;10456354;28;20340;-34
2022/12/02 05:09:41;;;;;;;36.23;19.60;;;;;;;4.65;54.87;100179.19;10433500;28;20238;-37
2022/12/02 05:14:42;;;;;;;36.13;18.53;;;;;;;3.93;56.54;100200.31;10433363;28;20882;-37
2022/12/02 05:19:44;;;;;;;39.80;20.87;;;;;;;4.04;56.44;100194.13;10436476;28;20234;-35
2022/12/02 05:24:47;;;;;;;36.30;20.03;;;;;;;3.48;57.00;100190.03;10436405;28;20239;-36
2022/12/02 05:29:49;;;;;;;35.73;19.30;;;;;;;4.27;55.86;100176.25;10436799;28;20236;-35
2022/12/02 05:34:50;;;;;;;36.20;20.50;;;;;;;3.22;57.66;100194.81;10435019;28;20251;-38
2022/12/02 05:39:53;;;;;;;36.03;19.70;;;;;;;4.07;55.58;100167.38;10435868;28;20325;-35
2022/12/02 05:44:59;;;;;;;37.23;19.80;;;;;;;3.24;57.25;100206.09;10435648;28;20232;-34
2022/12/02 05:50:09;;;;;;;33.73;19.90;;;;;;;3.03;57.56;100214.84;10435155;28;20232;-38
2022/12/02 05:55:21;;;;;;;34.23;20.00;;;;;;;3.35;56.92;100192.00;10448660;28;20239;-35
2022/12/02 06:00:22;;;;;;;31.40;19.37;;;;;;;2.35;58.52;100216.72;10434785;28;20255;-37
2022/12/02 06:05:25;;;;;;;33.87;19.27;;;;;;;3.82;56.82;100189.84;10434500;28;20231;-32
2022/12/02 06:10:31;;;;;;;35.30;21.07;;;;;;;3.14;57.95;100215.75;10409735;28;20232;-33
2022/12/02 06:15:37;;;;;;;32.97;18.63;;;;;;;3.02;58.30;100209.66;10401132;28;20721;-32
2022/12/02 06:20:39;;;;;;;36.07;19.97;;;;;;;2.30;59.02;100210.97;10405542;28;20231;-32
2022/12/02 06:25:41;;;;;;;38.27;20.53;;;;;;;2.98;57.76;100181.81;10404563;28;20236;-37
2022/12/02 06:30:43;;;;;;;34.17;20.20;;;;;;;2.93;57.38;100176.91;10405650;28;20236;-32
2022/12/02 06:35:45;;;;;;;41.43;20.33;;;;;;;2.91;58.56;100186.75;10404105;28;20239;-33
2022/12/02 06:40:46;;;;;;;40.57;21.00;;;;;;;2.58;59.30;100196.38;10404255;28;20243;-31
2022/12/02 06:45:48;;;;;;;33.83;19.20;;;;;;;3.22;56.96;100155.97;10401873;28;20637;-31
2022/12/02 06:50:50;;;;;;;34.87;18.97;;;;;;;5.19;54.18;100159.28;10403487;28;20282;-35
2022/12/02 06:55:58;;;;;;;30.87;17.53;;;;;;;3.20;55.91;100172.97;10402536;28;20748;-32
2022/12/02 07:01:24;;;;;;;36.27;20.23;;;;;;;2.51;58.53;100203.97;10403869;28;20268;-37
2022/12/02 07:06:29;;;;;;;34.73;19.10;;;;;;;2.97;57.01;100190.69;10404574;28;20225;-32
2022/12/02 07:11:50;;;;;;;36.03;20.17;;;;;;;2.97;57.58;100186.25;10401637;28;20233;-34
2022/12/02 07:16:59;;;;;;;40.67;19.77;;;;;;;3.72;56.39;100181.81;10402354;28;20236;-35
2022/12/02 07:22:03;;;;;;;35.40;19.47;;;;;;;4.09;55.45;100154.00;10400324;28;20275;-36
2022/12/02 07:27:17;;;;;;;40.07;20.90;;;;;;;4.19;54.87;100146.94;10395823;28;20677;-36
2022/12/02 07:32:19;;;;;;;40.47;20.37;;;;;;;4.12;55.79;100170.47;10396550;28;20228;-33
2022/12/02 07:37:21;;;;;;;52.70;21.17;;;;;;;3.07;58.11;100216.28;10398021;28;20282;-32
2022/12/02 07:42:28;;;;;;;39.45;21.30;;;;;;;4.08;56.27;100178.81;10190854;28;10001146;-34
2022/12/02 07:47:31;;;;;;;37.83;20.90;;;;;;;4.10;56.15;100179.50;9882227;28;10001079;-36
2022/12/02 07:52:32;;;;;;;44.87;21.70;;;;;;;3.51;57.47;100192.41;10403908;28;20245;-32
2022/12/02 07:57:34;;;;;;;39.30;20.57;;;;;;;3.30;57.07;100183.63;10393106;28;20369;-32
2022/12/02 08:02:36;;;;;;;38.77;21.17;;;;;;;4.47;55.87;100160.44;10394290;28;20741;-37
2022/12/02 08:07:38;;;;;;;41.67;22.23;;;;;;;3.58;56.64;100179.50;10397351;28;20239;-36
2022/12/02 08:12:41;;;;;;;45.80;23.40;;;;;;;3.88;56.51;100164.63;10403024;28;20623;-36
2022/12/02 08:17:43;;;;;;;40.00;24.20;;;;;;;2.60;58.35;100190.97;10440719;28;20245;-36
2022/12/02 08:22:44;;;;;;;39.47;21.20;;;;;;;4.25;56.09;100161.44;10434680;28;20236;-40
2022/12/02 08:27:46;;;;;;;42.33;21.33;;;;;;;2.98;58.38;100192.38;10400752;28;20244;-36
2022/12/02 08:32:48;;;;;;;40.37;21.93;;;;;;;3.49;57.63;100164.41;10392690;28;20247;-33
2022/12/02 08:37:50;;;;;;;50.20;21.63;;;;;;;3.63;57.32;100159.63;10394152;28;20263;-36
2022/12/02 08:42:51;;;;;;;46.40;23.73;;;;;;;3.23;58.18;100168.25;10395035;28;20236;-34
2022/12/02 08:47:53;;;;;;;42.70;22.17;;;;;;;2.83;58.78;100166.19;10395676;28;20243;-31
2022/12/02 08:52:55;;;;;;;40.77;21.60;;;;;;;3.37;59.19;100171.56;10399304;28;20236;-32
2022/12/02 08:57:59;;;;;;;41.53;21.90;;;;;;;3.47;59.52;100157.41;10403798;28;20289;-34
2022/12/02 09:03:01;;;;;;;42.20;20.87;;;;;;;3.77;57.99;100129.31;10433024;28;20262;-34
2022/12/02 09:08:03;;;;;;;44.60;22.40;;;;;;;4.86;56.01;100120.75;10397607;28;20748;-34
2022/12/02 09:13:05;;;;;;;40.53;20.70;;;;;;;3.00;59.59;100148.97;10396239;28;20291;-36
2022/12/02 09:18:07;;;;;;;41.03;23.23;;;;;;;3.00;59.82;100143.69;10395309;28;20718;-36
2022/12/02 09:23:15;;;;;;;39.30;20.63;;;;;;;4.31;57.53;100111.41;10394704;28;20346;-35
2022/12/02 09:28:16;;;;;;;41.27;22.57;;;;;;;3.99;57.24;100108.94;10395634;28;20243;-39
2022/12/02 09:33:18;;;;;;;42.67;21.33;;;;;;;3.93;57.37;100102.34;10398708;28;20524;-34
2022/12/02 09:38:20;;;;;;;43.63;23.10;;;;;;;4.86;55.86;100107.47;10414360;28;20254;-35
2022/12/02 09:43:22;;;;;;;40.90;21.13;;;;;;;3.67;59.30;100159.38;10419507;28;20236;-36
2022/12/02 09:48:24;;;;;;;38.47;20.90;;;;;;;4.03;58.19;100110.34;10391778;28;20243;-35
2022/12/02 09:53:32;;;;;;;41.43;20.33;;;;;;;4.07;58.06;100111.78;10406932;28;20236;-33
2022/12/02 09:58:33;;;;;;;39.03;20.37;;;;;;;4.06;58.54;100115.38;10397498;28;20315;-36
2022/12/02 10:03:35;;;;;;;42.13;21.67;;;;;;;3.45;59.86;100134.72;10402654;28;20243;-34
2022/12/02 10:08:37;;;;;;;40.03;20.87;;;;;;;3.46;59.35;100131.09;10403765;28;20289;-37
2022/12/02 10:13:40;;;;;;;48.97;23.23;;;;;;;4.37;58.62;100091.50;10406402;28;20236;-33
2022/12/02 10:18:42;;;;;;;42.00;21.67;;;;;;;3.97;57.96;100084.41;10405727;28;20232;-34
2022/12/02 10:23:52;;;;;;;40.00;20.57;;;;;;;2.50;60.99;100115.13;10399670;28;20601;-34
2022/12/02 10:28:59;;;;;;;45.77;22.17;;;;;;;2.56;61.40;100115.59;10399473;28;20236;-34
2022/12/02 10:34:04;;;;;;;46.50;24.77;;;;;;;4.28;58.46;100057.88;10400630;28;20225;-35
2022/12/02 10:39:20;;;;;;;46.73;22.77;;;;;;;3.49;59.26;100064.69;10388081;28;20233;-33
2022/12/02 10:44:22;;;;;;;49.63;22.37;;;;;;;4.06;58.55;100041.22;10391061;28;20323;-38
2022/12/02 10:49:35;;;;;;;44.60;22.40;;;;;;;3.76;58.87;100053.53;10404466;28;20208;-33
2022/12/02 10:54:42;;;;;;;45.77;22.67;;;;;;;3.46;60.16;100075.53;10401290;28;20239;-35
2022/12/02 10:59:44;;;;;;;47.13;21.73;;;;;;;4.38;58.51;100025.13;10397293;28;20250;-32
2022/12/02 11:06:19;;;;;;;41.17;20.03;;;;;;;1.81;64.45;100054.59;10441851;23;20323;-34
2022/12/02 11:11:24;;;;;;;49.17;26.20;;;;;;;1.94;64.62;100051.81;10335017;28;20233;-32
2022/12/02 11:16:25;;;;;;;49.23;24.20;;;;;;;1.91;64.55;100029.16;10327242;28;20233;-35
2022/12/02 11:21:27;;;;;;;50.33;23.03;;;;;;;1.78;64.34;100020.53;10378636;28;20251;-33
2022/12/02 11:27:04;;;;;;;46.60;23.23;;;;;;;2.04;64.74;100018.44;10385997;28;20235;-35
2022/12/02 11:32:25;;;;;;;46.53;22.17;;;;;;;2.05;65.15;100009.56;10377265;28;20260;-35
2022/12/02 11:37:27;;;;;;;45.13;21.03;;;;;;;1.75;64.80;99997.03;10344362;28;20258;-34
2022/12/02 11:42:33;;;;;;;45.00;22.67;;;;;;;2.63;62.73;99971.44;10338429;28;20236;-36
2022/12/02 11:47:35;;;;;;;43.80;21.63;;;;;;;1.99;63.63;99970.47;10379468;28;20649;-35
2022/12/02 11:52:39;;;;;;;44.70;22.73;;;;;;;2.08;64.17;99982.06;10384819;28;20235;-33
2022/12/02 11:57:48;;;;;;;43.53;20.83;;;;;;;2.22;63.99;99970.41;10368907;28;20269;-33
2022/12/02 12:03:18;;;;;;;139.80;55.40;;;;;;;3.09;62.37;99939.34;10365072;28;20236;-34
2022/12/02 12:08:25;;;;;;;40.73;20.50;;;;;;;3.05;62.40;99934.44;10357792;28;20230;-34
2022/12/02 12:13:27;;;;;;;39.50;21.07;;;;;;;2.57;63.24;99938.44;10369570;28;20690;-34
2022/12/02 12:18:37;;;;;;;37.80;21.00;;;;;;;3.34;61.40;99923.16;10338402;28;20283;-33
2022/12/02 12:23:42;;;;;;;36.40;19.13;;;;;;;2.27;62.26;99934.72;10335871;28;20402;-35
2022/12/02 12:28:43;;;;;;;37.23;19.07;;;;;;;1.95;64.03;99950.56;10334219;28;20210;-34
2022/12/02 12:33:45;;;;;;;39.03;19.87;;;;;;;1.51;64.25;99947.06;10342501;28;20843;-35
2022/12/02 12:38:47;;;;;;;36.70;17.87;;;;;;;1.62;63.50;99944.38;10335253;28;20309;-33
2022/12/02 12:43:49;;;;;;;33.50;19.37;;;;;;;2.83;61.57;99906.31;10338677;28;20241;-35
2022/12/02 12:48:50;;;;;;;33.47;22.17;;;;;;;3.42;60.69;99896.84;10328555;28;20576;-35
2022/12/02 12:53:52;;;;;;;30.73;17.87;;;;;;;2.17;62.97;99933.81;10324716;28;20240;-34
2022/12/02 12:58:54;;;;;;;32.47;17.30;;;;;;;1.91;62.26;99920.09;10324402;28;20610;-34
2022/12/02 13:03:56;;;;;;;32.47;18.13;;;;;;;2.87;60.85;99899.81;10294284;28;20729;-34
2022/12/02 13:08:57;;;;;;;40.87;22.60;;;;;;;3.15;60.53;99895.66;10299406;28;20243;-33
2022/12/02 13:13:59;;;;;;;37.17;23.27;;;;;;;3.82;58.88;99896.81;10339961;28;20225;-33
2022/12/02 13:19:01;;;;;;;38.03;25.73;;;;;;;3.17;60.09;99908.75;10350183;28;20212;-38
2022/12/02 13:24:04;;;;;;;26.27;15.77;;;;;;;2.40;62.28;99952.19;10354659;28;20235;-33
2022/12/02 13:29:06;;;;;;;28.37;16.43;;;;;;;2.99;60.22;99909.38;10344806;28;20618;-32
2022/12/02 13:34:07;;;;;;;24.10;13.77;;;;;;;2.35;61.72;99931.47;10351265;28;20244;-31
2022/12/02 13:39:10;;;;;;;48.30;32.47;;;;;;;2.96;59.89;99900.88;10346253;28;20210;-33
2022/12/02 13:44:12;;;;;;;18.93;14.00;;;;;;;2.44;61.47;99925.41;10352385;28;20241;-32
2022/12/02 13:49:13;;;;;;;24.13;15.13;;;;;;;3.37;59.49;99917.59;10346477;28;20682;-33
2022/12/02 13:54:15;;;;;;;17.83;11.10;;;;;;;2.70;61.11;99931.16;10348916;28;20598;-33
2022/12/02 13:59:17;;;;;;;17.17;13.03;;;;;;;3.38;59.08;99919.25;10347082;28;20670;-33
2022/12/02 14:04:19;;;;;;;20.20;13.33;;;;;;;3.29;59.81;99910.31;10358996;28;20315;-33
2022/12/02 14:09:21;;;;;;;19.20;13.57;;;;;;;2.96;60.69;99927.31;10354562;28;20209;-34
2022/12/02 14:14:23;;;;;;;20.23;14.23;;;;;;;3.41;60.37;99932.22;10349274;28;20651;-33
2022/12/02 14:19:25;;;;;;;18.20;12.37;;;;;;;2.76;60.58;99936.91;10350945;28;20589;-35
2022/12/02 14:24:27;;;;;;;19.27;12.93;;;;;;;2.60;61.75;99956.66;10348266;28;20245;-33
2022/12/02 14:29:29;;;;;;;17.80;13.17;;;;;;;2.62;61.50;99936.25;10342211;28;20234;-32
2022/12/02 14:34:30;;;;;;;60.40;38.90;;;;;;;2.49;61.79;99949.63;10347936;28;20229;-32
2022/12/02 14:39:32;;;;;;;32.57;22.53;;;;;;;2.77;61.74;99928.84;10350999;28;20233;-32
2022/12/02 14:44:34;;;;;;;20.50;13.57;;;;;;;3.28;61.10;99930.66;10343019;28;20240;-33
2022/12/02 14:49:35;;;;;;;19.60;13.43;;;;;;;1.78;62.81;99952.75;10346940;28;20240;-31
2022/12/02 14:54:48;;;;;;;16.40;11.93;;;;;;;2.38;62.81;99947.03;10350156;28;20329;-34
2022/12/02 14:59:50;;;;;;;19.63;13.23;;;;;;;2.84;62.20;99943.19;10346631;28;20264;-32
2022/12/02 15:04:51;;;;;;;18.90;13.37;;;;;;;2.11;62.89;99936.94;10346777;28;20799;-32
2022/12/02 15:09:53;;;;;;;17.30;13.80;;;;;;;2.61;62.19;99937.22;10339940;28;20240;-34
2022/12/02 15:14:55;;;;;;;17.47;11.93;;;;;;;1.27;64.13;99944.50;10343151;28;20323;-33
2022/12/02 15:20:17;;;;;;;17.23;12.23;;;;;;;2.58;62.17;99912.84;10340701;28;20306;-33
2022/12/02 15:25:18;;;;;;;16.00;11.80;;;;;;;2.23;62.79;99930.69;10338496;28;20242;-34
2022/12/02 15:30:20;;;;;;;16.90;11.70;;;;;;;3.17;61.71;99909.56;10344936;28;20236;-33
2022/12/02 15:35:22;;;;;;;15.67;11.37;;;;;;;2.70;61.68;99917.09;10346032;28;20263;-32
2022/12/02 15:40:24;;;;;;;14.97;10.83;;;;;;;2.00;62.58;99931.72;10344300;28;20603;-33
2022/12/02 15:45:25;;;;;;;14.67;10.70;;;;;;;2.66;62.60;99942.94;10341937;28;20422;-32
2022/12/02 15:50:27;;;;;;;14.83;11.80;;;;;;;2.30;62.14;99923.09;10344419;28;20674;-32
2022/12/02 15:55:29;;;;;;;13.47;9.50;;;;;;;3.03;61.20;99905.47;10347079;28;20241;-31
2022/12/02 16:00:30;;;;;;;12.73;10.30;;;;;;;2.46;61.98;99920.81;10346328;28;20246;-33
2022/12/02 16:05:32;;;;;;;14.40;9.63;;;;;;;2.78;61.59;99927.03;10352724;28;20597;-33
2022/12/02 16:10:34;;;;;;;13.67;10.33;;;;;;;2.82;60.89;99924.00;10341987;28;20240;-32
2022/12/02 16:15:36;;;;;;;13.47;11.03;;;;;;;2.20;61.89;99941.50;10352780;28;20737;-32
2022/12/02 16:20:37;;;;;;;11.37;9.13;;;;;;;2.93;60.97;99930.22;10344725;28;20621;-33
2022/12/02 16:25:39;;;;;;;11.87;9.63;;;;;;;2.55;61.91;99940.34;10349870;28;20248;-33
2022/12/02 16:30:40;;;;;;;23.87;21.27;;;;;;;2.84;61.01;99929.16;10351383;28;20235;-34
2022/12/02 16:35:42;;;;;;;13.20;10.87;;;;;;;2.61;61.00;99949.59;10351705;28;20245;-33
2022/12/02 16:40:44;;;;;;;21.37;18.43;;;;;;;2.88;61.30;99952.53;10351091;28;20282;-35
2022/12/02 16:45:45;;;;;;;15.90;13.63;;;;;;;3.75;59.51;99958.34;10348037;28;20281;-35
2022/12/02 16:50:47;;;;;;;12.90;10.33;;;;;;;2.63;60.58;99945.84;10343026;28;20260;-31
2022/12/02 16:55:56;;;;;;;13.90;12.20;;;;;;;2.73;60.80;99959.94;10345637;28;20323;-35
2022/12/02 17:00:58;;;;;;;13.67;10.77;;;;;;;3.42;59.79;99950.59;10346922;28;20237;-34
2022/12/02 17:05:59;;;;;;;15.70;9.97;;;;;;;2.92;60.20;99966.34;10343534;28;20248;-33
2022/12/02 17:11:01;;;;;;;13.50;10.60;;;;;;;2.85;60.31;99958.06;10336836;28;20614;-32
2022/12/02 17:16:03;;;;;;;13.80;10.83;;;;;;;2.47;61.34;99980.63;10343021;28;20237;-31
2022/12/02 17:21:05;;;;;;;13.97;10.57;;;;;;;3.20;59.78;99964.84;10348823;28;20732;-33
2022/12/02 17:26:06;;;;;;;15.27;11.80;;;;;;;2.63;61.39;99992.56;10341861;28;20711;-33
2022/12/02 17:31:09;;;;;;;14.87;10.73;;;;;;;2.96;59.55;99964.31;10345491;28;20260;-34
2022/12/02 17:36:12;;;;;;;16.10;11.90;;;;;;;2.78;60.59;99982.53;10346982;28;20788;-33
2022/12/02 17:41:14;;;;;;;14.70;11.67;;;;;;;2.58;61.02;99994.75;10340709;28;20244;-32
2022/12/02 17:46:15;;;;;;;25.03;15.70;;;;;;;1.87;61.23;99995.22;10341876;28;20247;-34
2022/12/02 17:51:17;;;;;;;16.23;11.53;;;;;;;2.49;60.94;99988.44;10341328;28;20650;-32
2022/12/02 17:56:19;;;;;;;17.83;12.63;;;;;;;2.22;61.63;100005.56;10347658;28;20240;-33
2022/12/02 18:01:21;;;;;;;18.80;15.30;;;;;;;2.70;60.49;99993.72;10327405;28;20240;-33
2022/12/02 18:06:22;;;;;;;17.77;12.10;;;;;;;2.78;59.70;100001.84;10335427;28;20240;-32
2022/12/02 18:11:24;;;;;;;17.43;12.30;;;;;;;2.34;60.66;100001.09;10339506;28;20247;-34
2022/12/02 18:16:26;;;;;;;15.07;11.03;;;;;;;2.57;59.88;100001.00;10344615;28;20264;-32
2022/12/02 18:21:27;;;;;;;14.50;10.30;;;;;;;2.60;61.23;100006.03;10317899;28;20234;-36
2022/12/02 18:26:29;;;;;;;15.50;11.10;;;;;;;2.75;59.92;99991.53;10289734;28;20302;-33
2022/12/02 18:31:31;;;;;;;15.10;11.50;;;;;;;2.32;60.94;99997.75;10312951;28;20234;-34
2022/12/02 18:36:33;;;;;;;18.37;13.23;;;;;;;1.84;62.68;100012.13;10318508;28;20236;-36
2022/12/02 18:41:34;;;;;;;14.17;10.80;;;;;;;1.84;61.97;100011.28;10316553;28;20747;-33
2022/12/02 18:46:36;;;;;;;15.67;11.87;;;;;;;1.83;61.38;99993.75;10314993;28;20234;-33
2022/12/02 18:51:38;;;;;;;15.20;11.20;;;;;;;1.69;62.00;100001.00;10322642;28;20268;-34
2022/12/02 18:56:40;;;;;;;13.30;8.87;;;;;;;1.30;63.33;100015.44;10310464;28;20265;-37
2022/12/02 19:01:41;;;;;;;13.53;9.30;;;;;;;2.57;60.43;99987.78;10303127;28;20255;-34
2022/12/02 19:06:43;;;;;;;10.80;9.03;;;;;;;1.92;61.51;99999.16;10319108;28;20757;-36
2022/12/02 19:11:45;;;;;;;12.40;9.20;;;;;;;0.89;62.73;99993.09;10320236;28;20234;-33
2022/12/02 19:16:47;;;;;;;12.90;9.93;;;;;;;1.15;62.69;99996.38;10311884;28;20252;-34
2022/12/02 19:21:49;;;;;;;12.80;10.10;;;;;;;1.46;62.11;99983.50;10318144;28;20252;-36
2022/12/02 19:26:50;;;;;;;14.97;9.83;;;;;;;1.77;62.10;99995.94;10321820;28;20724;-33
2022/12/02 19:31:52;;;;;;;13.47;10.17;;;;;;;2.89;59.29;99985.13;10307076;28;20247;-33
2022/12/02 19:36:54;;;;;;;12.57;9.37;;;;;;;1.51;62.11;99995.38;10287588;28;20684;-35
2022/12/02 19:41:55;;;;;;;13.90;11.03;;;;;;;1.83;60.96;99983.19;10286416;28;20969;-34
2022/12/02 19:46:57;;;;;;;13.43;10.47;;;;;;;1.38;62.33;99997.28;10270401;28;20251;-35
2022/12/02 19:51:59;;;;;;;15.80;10.23;;;;;;;1.43;62.10;100008.31;10253673;28;20251;-31
2022/12/02 19:57:00;;;;;;;12.47;9.57;;;;;;;1.61;61.36;99998.94;10288374;28;20229;-34
2022/12/02 20:02:02;;;;;;;12.90;9.80;;;;;;;1.74;61.49;99997.97;10285899;28;20239;-36
2022/12/02 20:07:04;;;;;;;12.83;10.47;;;;;;;2.64;59.35;99978.41;10287257;28;20234;-36
2022/12/02 20:12:06;;;;;;;13.00;10.57;;;;;;;1.78;60.99;100000.25;10275505;28;20807;-33
2022/12/02 20:17:08;;;;;;;14.23;10.00;;;;;;;1.04;62.57;100003.31;10284924;28;20525;-36
2022/12/02 20:22:09;;;;;;;13.37;10.10;;;;;;;1.72;61.65;100008.66;10286670;28;20587;-35
2022/12/02 20:27:11;;;;;;;15.50;10.93;;;;;;;1.41;61.87;100013.69;10284116;28;20727;-36
2022/12/02 20:32:13;;;;;;;13.23;10.23;;;;;;;2.20;60.75;99994.31;10279710;28;20237;-34
2022/12/02 20:37:14;;;;;;;13.53;10.17;;;;;;;1.83;60.95;99988.47;10279843;28;20240;-35
2022/12/02 20:42:17;;;;;;;12.23;9.90;;;;;;;2.31;59.68;99980.22;10277781;28;20238;-34
2022/12/02 20:47:18;;;;;;;16.93;10.87;;;;;;;2.41;60.27;99993.50;10275982;28;20251;-33
2022/12/02 20:52:20;;;;;;;13.47;9.63;;;;;;;2.70;59.20;99986.66;10271859;28;20384;-35
2022/12/02 20:57:22;;;;;;;13.77;10.53;;;;;;;1.87;61.45;100011.03;10255419;28;20230;-33
2022/12/02 21:02:24;;;;;;;13.27;10.13;;;;;;;2.14;61.08;100002.72;10256615;28;20241;-38
2022/12/02 21:07:25;;;;;;;11.87;9.20;;;;;;;1.87;61.86;100024.25;10259557;28;20240;-35
2022/12/02 21:12:27;;;;;;;16.67;11.57;;;;;;;2.33;60.39;99992.34;10305083;28;20582;-34
2022/12/02 21:17:29;;;;;;;12.03;9.67;;;;;;;1.53;61.11;100005.78;10283220;28;20323;-37
2022/12/02 21:22:31;;;;;;;12.87;9.87;;;;;;;2.16;61.05;99995.50;10282489;28;20303;-33
2022/12/02 21:27:33;;;;;;;13.00;10.20;;;;;;;2.10;61.44;100009.22;10283730;28;20237;-32
2022/12/02 21:32:35;;;;;;;12.37;9.87;;;;;;;2.13;61.23;100001.03;10282418;28;20232;-34
2022/12/02 21:37:36;;;;;;;14.13;10.10;;;;;;;2.33;60.85;99989.69;10284284;28;20593;-34
2022/12/02 21:42:39;;;;;;;13.30;9.43;;;;;;;2.29;59.88;99990.91;10283358;28;20695;-33
2022/12/02 21:47:40;;;;;;;12.23;9.83;;;;;;;3.02;59.09;99998.97;10277514;28;20283;-35
2022/12/02 21:52:42;;;;;;;14.07;10.00;;;;;;;2.52;60.47;100004.88;10255440;28;20666;-34
2022/12/02 21:57:44;;;;;;;14.60;10.90;;;;;;;2.14;60.83;100002.72;10281132;28;20259;-34
2022/12/02 22:02:45;;;;;;;14.53;10.93;;;;;;;2.22;61.03;100010.03;10281047;28;20243;-33
2022/12/02 22:07:47;;;;;;;16.57;11.87;;;;;;;2.61;60.68;100007.72;10283020;28;20245;-35
2022/12/02 22:12:50;;;;;;;12.60;10.70;;;;;;;2.62;60.65;99999.66;10271622;28;20541;-36
2022/12/02 22:17:51;;;;;;;13.97;10.60;;;;;;;1.41;61.33;100005.78;10273661;28;20252;-37
2022/12/02 22:22:53;;;;;;;16.07;11.30;;;;;;;2.12;60.72;100018.66;10270954;28;20249;-34
2022/12/02 22:27:55;;;;;;;18.43;12.40;;;;;;;2.67;60.19;100002.75;10270169;28;20240;-34
2022/12/02 22:32:56;;;;;;;18.70;12.20;;;;;;;2.09;61.24;100002.25;10275299;28;20246;-36
2022/12/02 22:37:58;;;;;;;16.70;13.70;;;;;;;2.14;61.13;100005.34;10280752;28;20244;-34
2022/12/02 22:43:00;;;;;;;18.80;14.27;;;;;;;1.98;61.83;100021.59;10253032;28;20239;-34
2022/12/02 22:48:02;;;;;;;16.63;12.90;;;;;;;2.42;60.35;100011.88;10240392;28;20237;-35
2022/12/02 22:53:03;;;;;;;18.43;13.33;;;;;;;1.74;61.38;100005.88;10272229;28;20265;-35
2022/12/02 22:58:05;;;;;;;17.93;12.27;;;;;;;2.41;60.71;100009.34;10247231;28;20234;-33
2022/12/02 23:03:07;;;;;;;17.43;12.73;;;;;;;2.23;60.98;100001.13;10246120;28;20240;-34
2022/12/02 23:08:09;;;;;;;17.10;12.57;;;;;;;2.04;60.27;99999.97;10271210;28;20322;-33
2022/12/02 23:13:11;;;;;;;18.40;13.13;;;;;;;1.75;60.44;99999.66;10257103;28;20233;-35
2022/12/02 23:18:12;;;;;;;18.20;12.60;;;;;;;2.26;60.90;100004.34;10280439;28;20242;-33
2022/12/02 23:23:14;;;;;;;16.47;12.47;;;;;;;1.78;61.71;100012.63;10280331;28;20253;-38
2022/12/02 23:28:16;;;;;;;17.07;11.67;;;;;;;2.38;59.99;99994.59;10280261;28;20245;-36
2022/12/02 23:33:17;;;;;;;17.23;12.40;;;;;;;2.00;61.35;99995.91;10279883;28;20237;-33
2022/12/02 23:38:19;;;;;;;19.23;12.63;;;;;;;2.34;60.93;99987.88;10280037;28;20240;-34
2022/12/02 23:43:21;;;;;;;20.87;14.63;;;;;;;1.53;62.36;99995.25;10279606;28;20233;-33
2022/12/02 23:48:22;;;;;;;18.83;12.53;;;;;;;2.91;59.76;99994.59;10280090;28;20627;-36
2022/12/02 23:53:24;;;;;;;17.50;12.97;;;;;;;2.17;61.07;99992.72;10279894;28;20276;-33
2022/12/02 23:58:26;;;;;;;15.73;12.13;;;;;;;1.86;60.30;99990.88;10280561;28;20298;-35
